Time;durP1;ratioP1;P1;durP2;ratioP2;P2;SDS_P1;SDS_P2;PMS_P1;PMS_P2;Temp;Humidity;BMP_temperature;BMP_pressure;BME280_temperature;BME280_humidity;BME280_pressure;Samples;Min_cycle;Max_cycle;Signal;HPM_P1;HPM_P2
2022/09/17 00:01:23;;;;;;;4.07;0.75;;;8.80;99.90;;;8.01;100.00;97543.94;5046141;28;20045;-75
2022/09/17 00:03:54;;;;;;;1.90;0.52;;;8.80;99.90;;;7.91;100.00;97544.22;5047723;28;20040;-74
2022/09/17 00:06:24;;;;;;;3.67;0.60;;;8.70;99.90;;;7.93;100.00;97547.56;5047238;28;20047;-75
2022/09/17 00:08:52;;;;;;;2.20;0.60;;;8.70;99.90;;;7.91;100.00;97557.16;5046406;28;20089;-74
2022/09/17 00:11:30;;;;;;;3.50;0.57;;;8.70;99.90;;;7.82;100.00;97557.41;5060144;28;20072;-74
2022/09/17 00:14:00;;;;;;;3.90;0.50;;;8.70;99.90;;;7.90;100.00;97552.84;5045875;28;20048;-76
2022/09/17 00:16:31;;;;;;;3.95;0.90;;;8.60;99.90;;;7.78;100.00;97557.56;5049006;28;20055;-74
2022/09/17 00:18:59;;;;;;;6.93;1.25;;;8.60;99.90;;;7.79;100.00;97564.44;5047747;28;20483;-76
2022/09/17 00:21:27;;;;;;;2.33;0.47;;;8.60;99.90;;;7.86;100.00;97553.00;5029585;28;20144;-76
2022/09/17 00:24:03;;;;;;;2.17;0.50;;;8.60;99.90;;;7.95;100.00;97553.53;5075542;28;20048;-76
2022/09/17 00:26:32;;;;;;;1.85;0.50;;;8.60;99.90;;;8.00;100.00;97565.47;5046126;28;20052;-76
2022/09/17 00:29:00;;;;;;;7.18;0.60;;;8.60;99.90;;;7.92;100.00;97571.75;5043336;28;20053;-74
2022/09/17 00:31:29;;;;;;;5.28;1.10;;;8.60;99.90;;;7.77;100.00;97561.88;5046634;28;20526;-76
2022/09/17 00:33:58;;;;;;;4.72;0.70;;;8.60;99.90;;;7.58;100.00;97563.38;5060858;28;20108;-76
2022/09/17 00:36:25;;;;;;;2.25;0.50;;;8.50;99.90;;;7.57;100.00;97566.84;5062973;28;20970;-76
2022/09/17 00:38:57;;;;;;;2.67;0.70;;;8.50;99.90;;;7.48;100.00;97568.81;5046301;28;20060;-76
2022/09/17 00:41:28;;;;;;;3.88;1.08;;;8.40;99.90;;;7.38;100.00;97567.41;5047699;28;20064;-76
2022/09/17 00:43:58;;;;;;;3.45;0.60;;;8.40;99.90;;;7.32;100.00;97580.47;5049632;28;20048;-76
2022/09/17 00:46:43;;;;;;;5.07;0.70;;;8.40;99.90;;;7.45;100.00;97586.97;5048332;28;20061;-76
2022/09/17 00:49:19;;;;;;;4.30;0.70;;;8.40;99.90;;;7.52;100.00;97583.31;5060673;28;20477;-76
2022/09/17 00:52:10;;;;;;;3.92;0.68;;;8.30;99.90;;;7.49;100.00;97593.75;5043861;28;20048;-76
2022/09/17 00:54:42;;;;;;;5.72;0.50;;;8.30;99.90;;;7.46;100.00;97598.19;5059543;28;20045;-76
2022/09/17 00:57:10;;;;;;;4.05;0.70;;;8.40;99.90;;;7.39;100.00;97602.66;5047774;28;20064;-76
2022/09/17 00:59:37;;;;;;;3.58;0.70;;;8.30;99.90;;;7.49;100.00;97609.25;5043906;28;20072;-76
2022/09/17 01:02:04;;;;;;;5.53;0.70;;;8.30;99.90;;;7.54;100.00;97614.28;5058991;28;20045;-76
2022/09/17 01:04:31;;;;;;;3.42;0.77;;;8.30;99.90;;;7.51;100.00;97619.53;5045156;28;20125;-76
2022/09/17 01:07:32;;;;;;;3.08;0.70;;;8.40;99.90;;;7.59;100.00;97622.72;5045294;28;20465;-76
2022/09/17 01:10:23;;;;;;;2.00;0.80;;;8.40;99.90;;;7.67;100.00;97622.50;5044805;28;20045;-76
2022/09/17 01:13:20;;;;;;;3.70;0.70;;;8.30;99.90;;;7.60;100.00;97628.75;5044344;28;20049;-76
2022/09/17 01:16:01;;;;;;;4.10;0.43;;;8.30;99.90;;;7.66;100.00;97628.56;5044382;28;20041;-76
2022/09/17 01:18:53;;;;;;;5.25;0.70;;;8.40;99.90;;;7.41;100.00;97631.00;5045074;28;20742;-76
2022/09/17 01:21:44;;;;;;;9.20;1.10;;;8.30;99.90;;;7.30;100.00;97641.66;5044279;28;20045;-76
2022/09/17 01:24:26;;;;;;;3.72;0.70;;;8.30;99.90;;;7.41;100.00;97641.34;5061819;28;20053;-76
2022/09/17 01:27:32;;;;;;;9.60;1.08;;;8.30;99.90;;;7.26;100.00;97635.72;5044955;28;20049;-76
2022/09/17 01:30:20;;;;;;;3.10;0.80;;;8.20;99.90;;;7.32;100.00;97645.91;5025719;28;20045;-76
2022/09/17 01:33:09;;;;;;;6.68;0.95;;;8.20;99.90;;;7.24;100.00;97655.59;5040675;28;20057;-76
2022/09/17 01:36:12;;;;;;;3.13;0.80;;;8.10;99.90;;;7.16;100.00;97649.81;5075723;28;20494;-76
2022/09/17 01:39:45;;;;;;;4.65;1.00;;;8.10;99.90;;;7.06;100.00;97648.34;5046711;28;20075;-76
2022/09/17 01:42:42;;;;;;;5.22;0.80;;;8.10;99.90;;;7.15;100.00;97666.16;5001048;28;20046;-76
2022/09/17 01:45:26;;;;;;;4.20;1.08;;;8.00;99.90;;;6.97;100.00;97664.91;4985313;28;20527;-76
2022/09/17 01:47:56;;;;;;;3.80;1.20;;;8.00;99.90;;;6.89;100.00;97662.56;5047717;28;20827;-76
2022/09/17 01:50:32;;;;;;;6.55;1.23;;;7.90;99.90;;;7.02;100.00;97670.81;5042407;28;20053;-76
2022/09/17 01:53:03;;;;;;;8.52;1.15;;;7.90;99.90;;;6.86;100.00;97672.94;5044154;28;20049;-76
2022/09/17 01:55:35;;;;;;;2.45;0.80;;;7.80;99.90;;;6.96;100.00;97677.88;5044026;28;20388;-76
2022/09/17 01:58:16;;;;;;;5.65;1.00;;;7.80;99.90;;;7.00;100.00;97687.22;5039639;28;20064;-76
2022/09/17 02:00:50;;;;;;;2.63;0.85;;;7.70;99.90;;;7.05;100.00;97690.53;5046946;28;20040;-76
2022/09/17 02:03:48;;;;;;;2.70;0.98;;;7.70;99.90;;;7.14;100.00;97698.03;5042114;28;20052;-76
2022/09/17 02:06:20;;;;;;;2.67;0.90;;;7.70;99.90;;;7.25;100.00;97700.31;5057129;28;20135;-76
2022/09/17 02:08:54;;;;;;;6.82;0.90;;;7.80;99.90;;;7.20;100.00;97699.59;5060896;28;20053;-76
2022/09/17 02:11:21;;;;;;;6.60;1.15;;;7.80;99.90;;;7.06;100.00;97698.22;5044316;28;20052;-76
2022/09/17 02:14:07;;;;;;;4.05;0.80;;;7.90;99.90;;;7.18;100.00;97703.94;5044280;28;20386;-76
2022/09/17 02:16:38;;;;;;;6.10;1.00;;;7.90;99.90;;;7.18;100.00;97698.78;5042288;28;20045;-76
2022/09/17 02:19:23;;;;;;;5.85;0.70;;;8.00;99.90;;;7.24;100.00;97701.22;5027036;28;20068;-76
2022/09/17 02:22:02;;;;;;;6.07;0.70;;;8.00;99.90;;;7.30;100.00;97703.63;5043360;28;20446;-76
2022/09/17 02:25:04;;;;;;;4.63;0.90;;;8.00;99.90;;;7.22;100.00;97705.56;5041112;28;20715;-76
2022/09/17 02:27:57;;;;;;;4.90;0.93;;;8.00;99.90;;;7.16;100.00;97704.00;5058170;28;20128;-76
2022/09/17 02:30:24;;;;;;;;;;;8.00;99.90;;;7.15;100.00;97697.13;5057203;28;20391;-76
2022/09/17 02:32:53;;;;;;;4.97;0.95;;;8.00;99.90;;;7.22;100.00;97690.91;5044764;28;19928;-76
2022/09/17 02:35:21;;;;;;;9.07;1.15;;;7.90;99.90;;;7.12;100.00;97694.66;5057222;28;20060;-76
2022/09/17 02:37:48;;;;;;;9.05;1.10;;;7.90;99.90;;;7.06;100.00;97705.97;5043427;28;20057;-76
2022/09/17 02:40:17;;;;;;;3.65;0.63;;;7.90;99.90;;;7.03;100.00;97697.47;5043408;28;20041;-76
2022/09/17 02:43:05;;;;;;;5.30;1.00;;;7.90;99.90;;;7.08;100.00;97704.19;5044268;28;20056;-77
2022/09/17 02:45:47;;;;;;;7.75;1.02;;;8.00;99.90;;;7.05;100.00;97701.72;5042073;28;20052;-76
2022/09/17 02:48:29;;;;;;;6.75;0.80;;;7.90;99.90;;;7.04;100.00;97701.75;5043599;28;20520;-77
2022/09/17 02:51:42;;;;;;;5.65;0.85;;;7.90;99.90;;;7.13;100.00;97709.25;5043080;28;20049;-76
2022/09/17 02:54:25;;;;;;;5.75;0.77;;;7.90;99.90;;;7.15;100.00;97716.94;5044587;28;20056;-76
2022/09/17 02:57:37;;;;;;;5.75;0.77;;;7.80;99.90;;;7.15;100.00;97709.22;5042115;28;20060;-76
2022/09/17 03:00:17;;;;;;;3.92;0.70;;;7.90;99.90;;;7.03;100.00;97708.66;5041320;28;20079;-76
2022/09/17 03:03:00;;;;;;;6.13;1.10;;;7.80;99.90;;;7.04;100.00;97715.47;5043682;28;20053;-76
2022/09/17 03:05:28;;;;;;;7.00;0.90;;;7.80;99.90;;;7.05;100.00;97708.63;5043011;28;20045;-76
2022/09/17 03:07:58;;;;;;;4.65;1.00;;;7.80;99.90;;;6.96;100.00;97714.00;5054656;28;20056;-76
2022/09/17 03:10:32;;;;;;;5.93;0.88;;;7.80;99.90;;;7.13;100.00;97724.72;5040334;28;20430;-76
2022/09/17 03:12:59;;;;;;;6.85;1.00;;;7.90;99.90;;;7.06;100.00;97718.88;5043492;28;20045;-77
2022/09/17 03:15:27;;;;;;;6.07;0.90;;;7.90;99.90;;;7.24;100.00;97714.13;5056602;28;20053;-76
2022/09/17 03:17:54;;;;;;;3.72;0.93;;;7.90;99.90;;;7.16;100.00;97718.63;5045824;28;20049;-76
2022/09/17 03:20:21;;;;;;;9.25;1.20;;;7.90;99.90;;;7.31;100.00;97718.22;5040014;28;20047;-76
2022/09/17 03:22:48;;;;;;;5.55;1.08;;;8.00;99.90;;;7.29;100.00;97720.00;5057068;28;20048;-76
2022/09/17 03:25:15;;;;;;;2.85;0.60;;;8.00;99.90;;;7.33;100.00;97719.88;5062236;28;20520;-76
2022/09/17 03:27:42;;;;;;;8.23;1.17;;;8.00;99.90;;;7.46;100.00;97719.56;5064155;28;20140;-76
2022/09/17 03:30:09;;;;;;;3.80;0.63;;;8.10;99.90;;;7.46;100.00;97720.41;5047521;28;20059;-76
2022/09/17 03:32:36;;;;;;;5.97;0.80;;;8.10;99.90;;;7.59;100.00;97720.03;5063944;28;20094;-76
2022/09/17 03:35:03;;;;;;;7.57;0.80;;;8.20;99.90;;;7.62;100.00;97710.47;5063150;28;20051;-76
2022/09/17 03:37:30;;;;;;;10.43;1.38;;;8.30;99.90;;;7.73;100.00;97712.72;5044209;28;20067;-76
2022/09/17 03:39:59;;;;;;;4.65;0.70;;;8.40;99.90;;;7.79;100.00;97712.56;5063524;28;20045;-76
2022/09/17 03:42:26;;;;;;;4.97;0.75;;;8.50;99.90;;;7.74;100.00;97706.69;5063482;28;20044;-77
2022/09/17 03:44:53;;;;;;;3.95;1.08;;;8.60;99.90;;;7.90;100.00;97715.69;5062459;28;20056;-76
2022/09/17 03:47:20;;;;;;;4.38;1.05;;;8.60;99.90;;;7.90;100.00;97720.84;5061340;28;20048;-76
2022/09/17 03:49:47;;;;;;;3.90;0.68;;;8.70;99.90;;;7.99;100.00;97716.31;5064172;28;20048;-76
2022/09/17 03:52:13;;;;;;;6.45;0.90;;;8.70;99.90;;;7.75;100.00;97698.03;5063246;28;20056;-76
2022/09/17 03:54:41;;;;;;;5.75;1.13;;;8.70;99.90;;;7.69;100.00;97699.06;5061336;28;20052;-76
2022/09/17 03:57:08;;;;;;;6.70;1.02;;;8.70;99.90;;;7.46;100.00;97704.91;5063129;28;20051;-76
2022/09/17 03:59:35;;;;;;;7.57;1.20;;;8.60;99.90;;;7.51;100.00;97699.59;5047612;28;20049;-77
2022/09/17 04:02:01;;;;;;;6.20;0.90;;;8.50;99.90;;;7.45;100.00;97708.34;5045399;28;20041;-76
2022/09/17 04:04:29;;;;;;;7.68;1.10;;;8.50;99.90;;;7.60;100.00;97711.41;5062294;28;20079;-76
2022/09/17 04:06:58;;;;;;;8.43;1.30;;;8.50;99.90;;;7.67;100.00;97716.34;5063436;28;20047;-76
2022/09/17 04:09:25;;;;;;;11.43;1.20;;;8.50;99.90;;;7.57;100.00;97714.91;5047054;28;20052;-76
2022/09/17 04:11:52;;;;;;;9.13;1.23;;;8.60;99.90;;;7.82;100.00;97716.78;5047221;28;20135;-76
2022/09/17 04:14:19;;;;;;;6.63;2.25;;;8.60;99.90;;;7.77;100.00;97716.09;5062340;28;20045;-76
2022/09/17 04:16:46;;;;;;;3.42;1.10;;;8.60;99.90;;;7.49;100.00;97722.88;5062728;28;20048;-76
2022/09/17 04:19:13;;;;;;;9.32;1.27;;;8.60;99.90;;;7.61;100.00;97718.25;5064662;28;20092;-77
2022/09/17 04:21:40;;;;;;;7.82;1.48;;;8.70;99.90;;;7.82;100.00;97717.63;5061988;28;20048;-73
2022/09/17 04:24:10;;;;;;;6.43;1.55;;;8.70;99.90;;;7.72;100.00;97716.22;5065568;28;20539;-76
2022/09/17 04:26:37;;;;;;;5.50;1.35;;;8.60;99.90;;;7.84;100.00;97712.44;5047175;28;20479;-76
2022/09/17 04:29:05;;;;;;;8.73;1.50;;;8.60;99.90;;;7.57;100.00;97709.75;5066797;28;20048;-76
2022/09/17 04:31:32;;;;;;;6.57;1.70;;;8.60;99.90;;;7.48;100.00;97707.41;5066798;28;20056;-76
2022/09/17 04:33:59;;;;;;;8.00;1.83;;;8.50;99.90;;;7.36;100.00;97708.59;5045628;28;20052;-76
2022/09/17 04:36:26;;;;;;;11.57;1.90;;;8.50;99.90;;;7.37;100.00;97717.19;5047894;28;20064;-75
2022/09/17 04:38:53;;;;;;;6.60;2.05;;;8.40;99.90;;;7.19;100.00;97719.41;5049973;28;20052;-75
2022/09/17 04:41:20;;;;;;;13.48;2.33;;;8.30;99.90;;;7.19;100.00;97716.00;5064697;28;20048;-76
2022/09/17 04:43:47;;;;;;;6.50;2.42;;;8.30;99.90;;;7.27;100.00;97729.53;5066538;28;20119;-76
2022/09/17 04:46:15;;;;;;;14.88;2.90;;;8.30;99.90;;;7.17;100.00;97744.41;5067208;28;20045;-75
2022/09/17 04:48:42;;;;;;;6.30;2.50;;;8.30;99.90;;;7.25;100.00;97751.94;5065698;28;20052;-75
2022/09/17 04:51:09;;;;;;;10.90;2.53;;;8.30;99.90;;;7.24;100.00;97755.44;5068154;28;20063;-75
2022/09/17 04:53:37;;;;;;;8.38;3.17;;;8.30;99.90;;;7.25;100.00;97757.09;5063897;28;20410;-75
2022/09/17 04:56:04;;;;;;;5.15;2.35;;;8.30;99.90;;;7.25;100.00;97759.69;5065490;28;20049;-75
2022/09/17 04:58:31;;;;;;;9.13;2.60;;;8.30;99.90;;;7.27;100.00;97768.25;5065635;28;20134;-75
2022/09/17 05:00:58;;;;;;;7.50;2.88;;;8.30;99.90;;;7.18;100.00;97771.06;5065924;28;20048;-75
2022/09/17 05:03:26;;;;;;;7.63;2.10;;;8.30;99.90;;;7.37;100.00;97781.75;5046517;28;20050;-75
2022/09/17 05:05:52;;;;;;;9.45;2.28;;;8.30;99.90;;;7.37;100.00;97786.91;5065326;28;20051;-75
2022/09/17 05:08:21;;;;;;;12.88;2.88;;;8.30;99.90;;;7.35;100.00;97789.56;5050238;28;20040;-75
2022/09/17 05:10:50;;;;;;;9.07;2.13;;;8.30;99.90;;;7.25;100.00;97790.66;5065407;28;20044;-75
2022/09/17 05:13:17;;;;;;;5.93;2.33;;;8.20;99.90;;;7.26;100.00;97792.38;5063010;28;20062;-75
2022/09/17 05:15:44;;;;;;;6.68;2.55;;;8.20;99.90;;;7.30;100.00;97804.34;5045576;28;20073;-75
2022/09/17 05:18:12;;;;;;;8.32;2.33;;;8.20;99.90;;;7.24;100.00;97804.47;5064043;28;20053;-75
2022/09/17 05:20:39;;;;;;;6.63;2.40;;;8.20;99.90;;;7.28;100.00;97806.09;5032096;28;20052;-75
2022/09/17 05:23:06;;;;;;;7.38;1.80;;;8.30;99.90;;;7.42;100.00;97809.16;5063679;28;20049;-75
2022/09/17 05:25:33;;;;;;;8.32;1.90;;;8.30;99.90;;;7.37;100.00;97805.00;5028726;28;20040;-75
2022/09/17 05:28:07;;;;;;;9.95;2.35;;;8.30;99.90;;;7.35;100.00;97817.13;5045054;28;20049;-75
2022/09/17 05:30:34;;;;;;;6.72;2.05;;;8.30;99.90;;;7.31;100.00;97816.34;5045414;28;20056;-75
2022/09/17 05:33:06;;;;;;;8.70;2.05;;;8.30;99.90;;;7.36;100.00;97817.06;5044540;28;20713;-75
2022/09/17 05:35:34;;;;;;;12.05;2.15;;;8.30;99.90;;;7.40;100.00;97818.69;5045624;28;20052;-75
2022/09/17 05:38:04;;;;;;;7.82;2.33;;;8.30;99.90;;;7.38;100.00;97814.47;5046289;28;20410;-75
2022/09/17 05:40:32;;;;;;;7.85;2.22;;;8.30;99.90;;;7.49;100.00;97810.69;5045113;28;20097;-75
2022/09/17 05:43:05;;;;;;;6.93;2.08;;;8.30;99.90;;;7.44;100.00;97822.91;5045190;28;20733;-75
2022/09/17 05:45:33;;;;;;;;;;;8.20;99.90;;;7.53;100.00;97820.06;5060204;28;20059;-75
2022/09/17 05:48:01;;;;;;;9.90;2.22;;;8.20;99.90;;;7.38;100.00;97824.78;5043682;28;19929;-75
2022/09/17 05:50:29;;;;;;;3.97;1.40;;;8.20;99.90;;;7.43;100.00;97830.66;5043428;28;20056;-75
2022/09/17 05:53:02;;;;;;;5.82;1.42;;;8.30;99.90;;;7.57;100.00;97836.31;5041226;28;20494;-75
2022/09/17 05:55:30;;;;;;;6.47;1.65;;;8.40;99.90;;;7.46;100.00;97831.44;5044674;28;20109;-75
2022/09/17 05:57:57;;;;;;;5.30;1.95;;;8.40;99.90;;;7.40;100.00;97843.66;5041672;28;20429;-75
2022/09/17 06:00:24;;;;;;;10.63;2.20;;;8.50;99.90;;;7.53;100.00;97845.91;5042964;28;20061;-75
2022/09/17 06:02:57;;;;;;;9.45;1.60;;;8.50;99.90;;;7.71;100.00;97841.16;5043780;28;20049;-75
2022/09/17 06:05:24;;;;;;;8.52;1.73;;;8.60;99.90;;;7.70;100.00;97839.44;5044059;28;20048;-75
2022/09/17 06:07:51;;;;;;;4.93;1.58;;;8.70;99.90;;;7.98;100.00;97842.09;5046606;28;20463;-75
2022/09/17 06:10:18;;;;;;;7.68;1.65;;;8.90;99.90;;;7.83;100.00;97848.56;5045616;28;20053;-75
2022/09/17 06:12:45;;;;;;;6.30;1.73;;;9.00;99.90;;;7.95;100.00;97843.03;5046057;28;20109;-75
2022/09/17 06:15:13;;;;;;;6.13;1.90;;;9.10;99.90;;;8.08;100.00;97847.88;5045758;28;20056;-75
2022/09/17 06:17:41;;;;;;;7.63;2.30;;;9.10;99.90;;;8.07;100.00;97852.19;5044429;28;20514;-75
2022/09/17 06:20:09;;;;;;;7.55;1.85;;;9.10;99.90;;;8.20;100.00;97841.50;5042951;28;20060;-75
2022/09/17 06:22:35;;;;;;;7.22;1.95;;;9.20;99.90;;;8.29;100.00;97842.09;5047534;28;20148;-75
2022/09/17 06:25:03;;;;;;;12.48;1.90;;;9.30;99.90;;;8.27;100.00;97838.69;5052052;28;20047;-75
2022/09/17 06:27:32;;;;;;;6.07;1.92;;;9.30;99.90;;;8.27;100.00;97836.09;5064030;28;20560;-75
2022/09/17 06:29:59;;;;;;;6.93;1.52;;;9.30;99.90;;;8.17;100.00;97832.09;5064001;28;20053;-75
2022/09/17 06:32:27;;;;;;;6.70;1.40;;;9.30;99.90;;;8.01;100.00;97823.94;5063702;28;20053;-75
2022/09/17 06:34:54;;;;;;;6.32;1.40;;;9.30;99.90;;;8.18;100.00;97826.88;5045563;28;20059;-75
2022/09/17 06:37:28;;;;;;;5.80;1.77;;;9.40;99.90;;;7.98;100.00;97831.75;5062708;28;20053;-75
2022/09/17 06:39:56;;;;;;;5.47;1.80;;;9.30;99.90;;;8.22;100.00;97824.22;5062954;28;20059;-75
2022/09/17 06:42:23;;;;;;;8.23;2.55;;;9.30;99.90;;;8.15;100.00;97820.94;5029166;28;20048;-74
2022/09/17 06:44:50;;;;;;;5.63;1.45;;;9.20;99.90;;;8.25;100.00;97824.94;5029484;28;20061;-75
2022/09/17 06:47:17;;;;;;;9.25;1.85;;;9.20;99.90;;;8.21;100.00;97827.66;5063048;28;20048;-75
2022/09/17 06:49:44;;;;;;;7.20;1.63;;;9.30;99.90;;;8.34;100.00;97829.00;5065298;28;20056;-75
2022/09/17 06:52:11;;;;;;;10.38;2.03;;;9.30;99.90;;;8.27;100.00;97830.94;5049193;28;20052;-74
2022/09/17 06:54:38;;;;;;;7.28;1.50;;;9.40;99.90;;;8.57;100.00;97831.78;5066003;28;20526;-74
2022/09/17 06:57:05;;;;;;;7.28;1.38;;;9.40;99.90;;;8.61;100.00;97824.78;5047314;28;20048;-75
2022/09/17 06:59:32;;;;;;;11.73;2.35;;;9.50;99.90;;;8.62;100.00;97820.44;5064220;28;20448;-75
2022/09/17 07:01:59;;;;;;;12.52;1.77;;;9.50;99.90;;;8.74;100.00;97831.28;5049405;28;20147;-74
2022/09/17 07:04:26;;;;;;;8.57;1.98;;;9.70;99.90;;;8.64;100.00;97827.25;5065324;28;20048;-76
2022/09/17 07:06:52;;;;;;;5.97;1.70;;;9.80;99.90;;;8.84;100.00;97821.47;5062193;28;20049;-75
2022/09/17 07:09:19;;;;;;;8.68;1.80;;;9.80;99.90;;;9.06;100.00;97821.63;5066220;28;20509;-74
2022/09/17 07:11:46;;;;;;;4.75;1.27;;;9.90;99.90;;;8.68;100.00;97812.50;5061286;28;20059;-75
2022/09/17 07:14:13;;;;;;;9.80;1.95;;;10.00;99.90;;;8.60;100.00;97812.75;5064932;28;20089;-75
2022/09/17 07:16:40;;;;;;;8.48;1.70;;;9.90;99.90;;;8.97;100.00;97819.34;5063521;28;20572;-75
2022/09/17 07:19:07;;;;;;;6.05;1.88;;;9.90;99.90;;;8.82;100.00;97815.50;5044778;28;20057;-75
2022/09/17 07:21:34;;;;;;;12.55;1.83;;;10.00;99.90;;;8.78;100.00;97817.34;5049618;28;20049;-75
2022/09/17 07:24:02;;;;;;;5.93;1.70;;;10.10;99.90;;;8.98;100.00;97823.63;5047706;28;20080;-75
2022/09/17 07:26:29;;;;;;;6.82;1.75;;;10.20;99.90;;;8.99;100.00;97815.81;5065052;28;20064;-75
2022/09/17 07:28:56;;;;;;;5.78;1.60;;;10.40;99.90;;;9.14;100.00;97806.69;5067006;28;20044;-75
2022/09/17 07:31:23;;;;;;;7.60;1.83;;;10.40;99.90;;;9.38;100.00;97799.00;5049266;28;20056;-75
2022/09/17 07:33:50;;;;;;;10.80;2.10;;;10.50;99.90;;;9.43;100.00;97794.50;5048934;28;20409;-75
2022/09/17 07:36:17;;;;;;;6.38;1.70;;;10.80;99.90;;;9.83;100.00;97790.50;5065654;28;20040;-75
2022/09/17 07:38:45;;;;;;;6.20;1.65;;;11.10;99.90;;;9.61;100.00;97798.19;5064732;28;20105;-75
2022/09/17 07:41:15;;;;;;;8.27;1.50;;;11.10;99.90;;;9.41;100.00;97778.16;5030318;28;20048;-75
2022/09/17 07:43:43;;;;;;;11.18;2.15;;;11.00;99.90;;;9.38;100.00;97779.13;5045100;28;20040;-75
2022/09/17 07:46:18;;;;;;;13.70;2.55;;;10.90;99.90;;;9.20;100.00;97782.34;5065938;28;20055;-75
2022/09/17 07:48:46;;;;;;;4.45;1.15;;;10.90;99.90;;;9.13;100.00;97781.69;5030125;28;20048;-75
2022/09/17 07:51:23;;;;;;;6.55;1.65;;;10.70;99.90;;;9.45;100.00;97781.50;5064958;28;20052;-75
2022/09/17 07:53:58;;;;;;;6.63;2.00;;;10.70;99.90;;;9.30;100.00;97796.66;5046291;28;20053;-75
2022/09/17 07:56:26;;;;;;;8.50;2.15;;;10.80;99.90;;;9.44;100.00;97788.41;5047789;28;20053;-75
2022/09/17 07:58:53;;;;;;;10.30;1.63;;;11.00;99.90;;;10.11;100.00;97805.06;5051032;28;20075;-75
2022/09/17 08:01:21;;;;;;;6.97;1.80;;;11.30;99.90;;;10.64;100.00;97790.06;5053726;28;20049;-75
2022/09/17 08:03:53;;;;;;;9.77;2.60;;;11.80;99.90;;;10.53;100.00;97762.84;5055367;28;20044;-75
2022/09/17 08:06:24;;;;;;;9.32;2.58;;;12.20;99.90;;;11.15;100.00;97756.81;5067223;28;20366;-75
2022/09/17 08:08:51;;;;;;;7.82;1.88;;;12.60;99.90;;;11.95;100.00;97744.72;5067712;28;20055;-74
2022/09/17 08:11:22;;;;;;;9.65;4.90;;;12.90;99.90;;;12.02;100.00;97718.38;5069304;28;20049;-73
2022/09/17 08:14:13;;;;;;;8.32;1.65;;;13.40;99.90;;;11.96;100.00;97684.84;5053470;28;20124;-73
2022/09/17 08:16:41;;;;;;;13.00;5.57;;;13.60;99.90;;;11.77;100.00;97671.81;5035442;28;20052;-74
2022/09/17 08:19:09;;;;;;;5.88;1.42;;;13.60;99.90;;;12.33;100.00;97657.06;5063779;28;20064;-75
2022/09/17 08:21:37;;;;;;;14.70;5.82;;;13.80;99.90;;;13.02;100.00;97635.38;5068927;28;20064;-73
2022/09/17 08:24:04;;;;;;;9.15;2.72;;;13.90;99.90;;;12.13;100.00;97617.25;5033234;28;20060;-73
2022/09/17 08:26:31;;;;;;;25.00;10.80;;;14.10;99.90;;;12.91;100.00;97611.69;5066058;28;20052;-73
2022/09/17 08:28:58;;;;;;;18.80;5.88;;;14.30;99.90;;;13.37;100.00;97604.91;5069156;28;20508;-73
2022/09/17 08:31:28;;;;;;;9.05;1.17;;;14.40;99.90;;;13.60;100.00;97587.19;5068372;28;20375;-73
2022/09/17 08:33:56;;;;;;;7.15;1.17;;;14.60;99.90;;;13.72;100.00;97576.06;5064435;28;20385;-73
2022/09/17 08:36:25;;;;;;;5.18;0.80;;;14.90;99.90;;;14.62;100.00;97566.66;5069710;28;20064;-73
2022/09/17 08:38:53;;;;;;;5.47;0.90;;;15.00;99.90;;;14.66;100.00;97554.25;5051550;28;20059;-73
2022/09/17 08:41:38;;;;;;;3.25;0.70;;;15.30;99.90;;;14.32;100.00;97546.59;5061822;28;20045;-73
2022/09/17 08:44:20;;;;;;;4.68;1.35;;;15.70;99.90;;;14.57;100.00;97543.44;5065310;28;20060;-73
2022/09/17 08:47:07;;;;;;;4.70;0.70;;;16.20;99.90;;;14.43;100.00;97536.34;5051100;28;20041;-74
2022/09/17 08:49:49;;;;;;;6.22;0.90;;;16.60;99.90;;;13.80;100.00;97532.16;5062176;28;20074;-73
2022/09/17 08:52:58;;;;;;;5.43;1.08;;;16.50;99.90;;;13.46;100.00;97532.34;5067213;28;20048;-73
2022/09/17 08:55:46;;;;;;;3.13;0.68;;;16.00;99.90;;;14.84;100.00;97532.22;5076566;28;20060;-73
2022/09/17 08:58:41;;;;;;;5.90;0.63;;;16.30;99.90;;;16.51;100.00;97505.84;5068024;28;20048;-73
2022/09/17 09:01:45;;;;;;;5.70;0.93;;;17.30;99.90;;;15.73;100.00;97491.84;5049539;28;20140;-73
2022/09/17 09:04:49;;;;;;;6.22;0.90;;;18.40;99.90;;;14.82;100.00;97492.28;5067208;28;20052;-73
2022/09/17 09:07:24;;;;;;;4.10;0.77;;;18.00;99.90;;;15.17;100.00;97492.72;5066949;28;20048;-74
2022/09/17 09:10:07;;;;;;;3.42;0.65;;;17.40;99.90;;;16.21;100.00;97479.09;5066207;28;20060;-73
2022/09/17 09:12:36;;;;;;;5.63;0.73;;;17.50;99.90;;;15.31;100.00;97484.03;5067133;28;20151;-74
2022/09/17 09:15:30;;;;;;;5.65;0.88;;;17.20;99.90;;;13.74;100.00;97492.53;5047266;28;20044;-73
2022/09/17 09:18:04;;;;;;;6.68;0.70;;;16.80;99.90;;;13.64;100.00;97496.56;5050243;28;20049;-75
2022/09/17 09:20:47;;;;;;;2.63;0.70;;;16.10;99.90;;;13.31;100.00;97497.53;5029270;28;20361;-75
2022/09/17 09:23:44;;;;;;;6.82;0.80;;;15.40;99.90;;;13.23;100.00;97497.06;5047720;28;20044;-75
2022/09/17 09:26:23;;;;;;;4.45;0.90;;;;;;;13.26;100.00;97491.69;5062345;28;20513;-75
2022/09/17 09:29:10;;;;;;;7.90;0.80;;;14.60;99.90;;;13.36;100.00;97490.28;5046960;28;20646;-75
2022/09/17 09:31:51;;;;;;;6.10;1.13;;;14.50;99.90;;;13.10;100.00;97507.31;5055332;28;20106;-75
2022/09/17 09:34:19;;;;;;;5.63;0.93;;;14.60;99.90;;;13.21;100.00;97512.78;5066678;28;20040;-75
2022/09/17 09:36:48;;;;;;;7.18;0.85;;;14.60;99.90;;;13.77;100.00;97506.22;5046222;28;20052;-75
2022/09/17 09:39:22;;;;;;;7.45;1.23;;;14.80;99.90;;;13.74;100.00;97488.13;5046692;28;20048;-74
2022/09/17 09:42:10;;;;;;;6.78;1.30;;;15.00;99.90;;;13.39;100.00;97490.97;5064152;28;20063;-74
2022/09/17 09:44:37;;;;;;;7.55;1.00;;;15.00;99.90;;;13.53;100.00;97498.00;5065443;28;20056;-75
2022/09/17 09:47:47;;;;;;;5.75;1.00;;;15.00;99.90;;;14.35;100.00;97488.13;5067046;28;20488;-74
2022/09/17 09:50:47;;;;;;;5.00;0.85;;;15.40;99.90;;;15.85;100.00;97477.97;5064613;28;20466;-74
2022/09/17 09:53:53;;;;;;;3.45;0.68;;;16.90;99.90;;;15.92;100.00;97474.03;5049556;28;20055;-74
2022/09/17 09:57:06;;;;;;;5.53;1.15;;;17.60;99.90;;;16.31;100.00;97465.28;5046160;28;20059;-73
2022/09/17 09:59:36;;;;;;;5.53;1.00;;;18.50;99.90;;;15.61;100.00;97470.75;5014547;28;20048;-73
2022/09/17 10:02:04;;;;;;;3.90;0.73;;;18.00;99.90;;;14.19;100.00;97482.97;5031535;28;20052;-74
2022/09/17 10:04:31;;;;;;;6.72;1.02;;;17.30;99.90;;;13.36;100.00;97488.53;5065198;28;20051;-74
2022/09/17 10:07:10;;;;;;;7.90;1.92;;;16.40;99.90;;;13.98;100.00;97504.16;5064156;28;20044;-74
2022/09/17 10:09:44;;;;;;;5.57;0.80;;;15.80;99.90;;;13.85;100.00;97495.38;5047701;28;20107;-74
2022/09/17 10:12:11;;;;;;;5.32;0.80;;;15.70;99.90;;;13.55;100.00;97492.72;5063583;28;20055;-74
2022/09/17 10:14:40;;;;;;;7.25;1.27;;;;;;;13.58;100.00;97489.94;5063224;28;20432;-74
2022/09/17 10:17:20;;;;;;;13.88;1.27;;;15.40;99.90;;;12.94;100.00;97504.69;5064125;28;20618;-74
2022/09/17 10:20:13;;;;;;;5.25;0.90;;;15.20;99.90;;;12.98;100.00;97501.00;5027212;28;20048;-74
2022/09/17 10:22:47;;;;;;;4.55;0.85;;;15.00;99.90;;;13.18;100.00;97500.78;5064230;28;20417;-74
2022/09/17 10:25:32;;;;;;;7.03;0.98;;;14.90;99.90;;;12.92;100.00;97502.16;5061647;28;20048;-74
2022/09/17 10:28:04;;;;;;;7.10;1.20;;;14.80;99.90;;;13.02;100.00;97517.31;5044034;28;20055;-73
2022/09/17 10:30:31;;;;;;;7.35;0.77;;;14.60;99.90;;;12.81;100.00;97519.28;5045723;28;20056;-74
2022/09/17 10:33:22;;;;;;;8.07;0.77;;;14.40;99.90;;;12.01;100.00;97531.97;5060575;28;20135;-74
2022/09/17 10:36:03;;;;;;;8.52;1.10;;;13.90;99.90;;;11.72;100.00;97560.22;5063134;28;20052;-73
2022/09/17 10:38:43;;;;;;;10.20;1.23;;;13.50;99.90;;;11.91;100.00;97575.81;5061936;28;20399;-74
2022/09/17 10:41:16;;;;;;;7.07;1.23;;;13.30;99.90;;;11.94;100.00;97582.63;5062584;28;20056;-73
2022/09/17 10:43:44;;;;;;;6.40;1.10;;;13.40;99.90;;;12.13;100.00;97585.16;5063720;28;20045;-74
2022/09/17 10:46:26;;;;;;;6.20;0.80;;;13.40;99.90;;;11.72;100.00;97594.03;5063994;28;20529;-74
2022/09/17 10:49:27;;;;;;;5.20;0.80;;;13.50;99.90;;;11.92;100.00;97600.06;5046877;28;20098;-75
2022/09/17 10:52:25;;;;;;;4.80;0.73;;;13.40;99.90;;;11.95;100.00;97601.66;5030352;28;20048;-75